Time;durP1;ratioP1;P1;durP2;ratioP2;P2;SDS_P1;SDS_P2;PMS_P1;PMS_P2;Temp;Humidity;BMP_temperature;BMP_pressure;BME280_temperature;BME280_humidity;BME280_pressure;Samples;Min_cycle;Max_cycle;Signal;HPM_P1;HPM_P2
2021/09/01 00:04:11;;;;;;;16.95;4.43;;;;;16.40;101007.00;;;;5043890;28;20427;-80
2021/09/01 00:06:38;;;;;;;14.63;4.45;;;;;16.30;101038.00;;;;5049353;28;20060;-79
2021/09/01 00:09:05;;;;;;;20.30;4.63;;;;;16.20;101028.00;;;;5048778;28;20070;-79
2021/09/01 00:11:31;;;;;;;15.13;4.65;;;;;16.20;101030.00;;;;5050420;28;20040;-79
2021/09/01 00:13:58;;;;;;;20.30;5.10;;;;;16.10;101034.00;;;;5061881;28;20043;-80
2021/09/01 00:16:28;;;;;;;11.90;4.75;;;;;16.00;101030.00;;;;5067905;28;20024;-79
2021/09/01 00:18:59;;;;;;;13.90;3.78;;;;;16.00;101012.00;;;;5068258;28;20112;-80
2021/09/01 00:21:26;;;;;;;22.15;5.13;;;;;16.00;101040.00;;;;5068106;28;20071;-79
2021/09/01 00:23:54;;;;;;;13.80;4.88;;;;;16.00;101044.00;;;;5064759;28;20029;-81
2021/09/01 00:26:21;;;;;;;24.25;5.43;;;;;16.00;101026.00;;;;5068306;28;20419;-77
2021/09/01 00:28:48;;;;;;;24.88;5.30;;;;;16.00;101048.00;;;;5068195;28;20408;-80
2021/09/01 00:31:15;;;;;;;24.10;5.60;;;;;16.00;101052.00;;;;5069280;28;20025;-77
2021/09/01 00:33:42;;;;;;;27.35;6.35;;;;;16.00;101035.00;;;;5068918;28;20090;-78
2021/09/01 00:36:08;;;;;;;29.38;5.78;;;;;16.00;101037.00;;;;5069486;28;20035;-78
2021/09/01 00:38:35;;;;;;;19.63;4.90;;;;;16.00;101041.00;;;;5069244;28;20470;-78
2021/09/01 00:41:02;;;;;;;20.55;6.15;;;;;16.00;101033.00;;;;5068991;28;20099;-79
2021/09/01 00:43:29;;;;;;;22.10;5.38;;;;;16.00;101066.00;;;;5067944;28;20060;-80
2021/09/01 00:45:56;;;;;;;18.90;5.97;;;;;16.00;101060.00;;;;5068568;28;20043;-80
2021/09/01 00:48:23;;;;;;;24.23;5.97;;;;;16.00;101047.00;;;;5063323;28;20028;-78
2021/09/01 00:50:57;;;;;;;19.73;5.82;;;;;15.90;101055.00;;;;5054125;28;20396;-80
2021/09/01 00:53:27;;;;;;;23.63;7.00;;;;;15.90;101062.00;;;;5056021;28;20128;-80
2021/09/01 00:55:56;;;;;;;21.52;6.25;;;;;15.90;101057.00;;;;5057219;28;20029;-79
2021/09/01 00:58:23;;;;;;;26.55;6.88;;;;;15.90;101050.00;;;;5057592;28;20056;-78
2021/09/01 01:03:38;;;;;;;20.52;6.78;;;;;15.90;101084.00;;;;5064261;28;20608;-78
2021/09/01 01:06:04;;;;;;;20.13;6.90;;;;;15.90;101066.00;;;;5066606;28;20029;-78
2021/09/01 01:08:32;;;;;;;18.25;6.65;;;;;15.80;101058.00;;;;5070983;28;20029;-78
2021/09/01 01:11:02;;;;;;;18.13;6.40;;;;;15.80;101087.00;;;;5065394;28;20055;-79
2021/09/01 01:13:31;;;;;;;28.75;6.80;;;;;15.80;101062.00;;;;5068181;28;20127;-78
2021/09/01 01:15:58;;;;;;;22.88;6.82;;;;;15.80;101050.00;;;;5066574;28;20077;-78
2021/09/01 01:18:24;;;;;;;15.82;7.25;;;;;15.70;101059.00;;;;5066645;28;20074;-79
2021/09/01 01:20:53;;;;;;;22.42;7.10;;;;;15.60;101072.00;;;;5066492;28;20115;-77
2021/09/01 01:23:24;;;;;;;24.65;7.88;;;;;15.60;101078.00;;;;5066483;28;20029;-79
2021/09/01 01:25:53;;;;;;;23.25;7.63;;;;;15.70;101064.00;;;;5067060;28;20032;-79
2021/09/01 01:28:20;;;;;;;21.50;8.05;;;;;15.60;101060.00;;;;5067324;28;20115;-78
2021/09/01 01:30:47;;;;;;;28.40;7.57;;;;;15.60;101049.00;;;;5066449;28;20082;-78
2021/09/01 01:33:14;;;;;;;18.52;7.03;;;;;15.60;101064.00;;;;5066944;28;20109;-78
2021/09/01 01:35:43;;;;;;;18.02;7.90;;;;;15.50;101071.00;;;;5066303;28;20510;-78
2021/09/01 01:38:16;;;;;;;17.75;7.75;;;;;15.40;101065.00;;;;5067129;28;20032;-79
2021/09/01 01:40:43;;;;;;;18.15;7.10;;;;;15.50;101079.00;;;;5066228;28;20028;-78
2021/09/01 01:43:11;;;;;;;31.13;8.23;;;;;15.50;101058.00;;;;5067271;28;20021;-78
2021/09/01 01:45:41;;;;;;;14.30;7.82;;;;;15.40;101074.00;;;;5066293;28;20031;-79
2021/09/01 01:48:09;;;;;;;18.83;8.32;;;;;15.30;101084.00;;;;5067288;28;20040;-79
2021/09/01 01:50:36;;;;;;;33.42;8.95;;;;;15.30;101088.00;;;;5066588;28;20028;-78
2021/09/01 01:53:05;;;;;;;17.08;7.63;;;;;15.50;101079.00;;;;5066423;28;20598;-79
2021/09/01 01:55:32;;;;;;;35.22;10.23;;;;;15.60;101076.00;;;;5066756;28;20040;-79
2021/09/01 01:57:58;;;;;;;24.92;9.25;;;;;15.70;101066.00;;;;5066732;28;20040;-78
2021/09/01 02:00:25;;;;;;;22.67;8.50;;;;;15.60;101087.00;;;;5066759;28;20746;-79
2021/09/01 02:02:52;;;;;;;20.95;9.18;;;;;15.60;101068.00;;;;5066166;28;20028;-79
2021/09/01 02:05:19;;;;;;;18.13;9.75;;;;;15.50;101072.00;;;;5067231;28;20464;-80
2021/09/01 02:07:45;;;;;;;19.98;9.57;;;;;15.40;101049.00;;;;5065641;28;20039;-79
2021/09/01 02:10:12;;;;;;;19.80;8.77;;;;;15.40;101043.00;;;;5066795;28;20032;-79
2021/09/01 02:12:40;;;;;;;23.15;9.43;;;;;15.40;101068.00;;;;5066419;28;20083;-80
2021/09/01 02:15:09;;;;;;;15.70;9.00;;;;;15.40;101070.00;;;;5066864;28;20519;-78
2021/09/01 02:17:35;;;;;;;17.52;9.00;;;;;15.30;101061.00;;;;5066220;28;20043;-78
2021/09/01 02:20:04;;;;;;;14.65;8.43;;;;;15.20;101045.00;;;;5067042;28;20025;-78
2021/09/01 02:22:30;;;;;;;15.75;8.10;;;;;15.30;101059.00;;;;5065520;28;20403;-79
2021/09/01 02:24:57;;;;;;;13.95;8.52;;;;;15.30;101048.00;;;;5066180;28;20395;-79
2021/09/01 02:27:24;;;;;;;17.88;8.63;;;;;15.30;101030.00;;;;5066740;28;20044;-79
2021/09/01 02:29:50;;;;;;;23.83;8.68;;;;;15.40;101055.00;;;;5066104;28;20047;-78
2021/09/01 02:32:17;;;;;;;19.80;8.52;;;;;15.40;101066.00;;;;5065971;28;20036;-79
2021/09/01 02:34:44;;;;;;;13.43;8.13;;;;;15.50;101044.00;;;;5066337;28;20032;-78
2021/09/01 02:37:10;;;;;;;12.65;7.35;;;;;15.50;101048.00;;;;5066226;28;20024;-79
2021/09/01 02:39:37;;;;;;;17.60;7.82;;;;;15.40;101044.00;;;;5066258;28;20770;-78
2021/09/01 02:42:04;;;;;;;16.23;8.23;;;;;15.40;101060.00;;;;5066142;28;20024;-79
2021/09/01 02:44:30;;;;;;;13.50;7.53;;;;;15.30;101035.00;;;;5069296;28;20029;-78
2021/09/01 02:46:57;;;;;;;14.32;6.90;;;;;15.30;101039.00;;;;5069600;28;20797;-78
2021/09/01 02:49:23;;;;;;;11.35;7.47;;;;;15.30;101034.00;;;;5069951;28;20033;-79
2021/09/01 02:51:50;;;;;;;13.00;6.97;;;;;15.40;101029.00;;;;5070252;28;20025;-79
2021/09/01 02:54:17;;;;;;;16.50;7.93;;;;;15.30;101036.00;;;;5069560;28;20159;-79
2021/09/01 02:56:43;;;;;;;14.27;7.57;;;;;15.30;101035.00;;;;5070019;28;20415;-79
2021/09/01 02:59:10;;;;;;;16.13;7.00;;;;;15.20;101058.00;;;;5069446;28;20056;-79
2021/09/01 03:01:36;;;;;;;16.02;7.22;;;;;15.20;101048.00;;;;5069941;28;20395;-78
2021/09/01 03:04:03;;;;;;;12.38;7.00;;;;;15.10;101054.00;;;;5069222;28;20035;-78
2021/09/01 03:06:30;;;;;;;14.73;6.90;;;;;15.10;101034.00;;;;5069470;28;20028;-79
2021/09/01 03:08:56;;;;;;;19.10;7.68;;;;;15.00;101044.00;;;;5069465;28;20120;-79
2021/09/01 03:11:23;;;;;;;10.82;6.35;;;;;15.10;101028.00;;;;5069538;28;20099;-79
2021/09/01 03:13:49;;;;;;;12.50;6.22;;;;;15.10;101054.00;;;;5069903;28;20020;-79
2021/09/01 03:16:16;;;;;;;14.60;7.28;;;;;15.00;101049.00;;;;5069692;28;20120;-79
2021/09/01 03:18:43;;;;;;;13.05;7.20;;;;;15.00;101036.00;;;;5069952;28;20048;-78
2021/09/01 03:21:10;;;;;;;14.80;6.88;;;;;15.00;101038.00;;;;5069499;28;21216;-78
2021/09/01 03:23:37;;;;;;;13.90;6.72;;;;;14.90;101041.00;;;;5068943;28;20033;-78
2021/09/01 03:26:04;;;;;;;18.23;6.32;;;;;14.90;101030.00;;;;5068996;28;20025;-79
2021/09/01 03:28:31;;;;;;;14.77;6.57;;;;;15.00;101036.00;;;;5069087;28;20523;-79
2021/09/01 03:30:57;;;;;;;13.38;6.75;;;;;14.90;101037.00;;;;5069461;28;20487;-79
2021/09/01 03:33:24;;;;;;;9.88;5.97;;;;;14.90;101021.00;;;;5069137;28;20028;-78
2021/09/01 03:35:50;;;;;;;12.20;6.90;;;;;14.80;101050.00;;;;5069459;28;20028;-79
2021/09/01 03:38:17;;;;;;;12.02;6.20;;;;;14.80;101040.00;;;;5068766;28;20032;-79
2021/09/01 03:40:44;;;;;;;15.65;7.00;;;;;14.80;101018.00;;;;5068631;28;20071;-79
2021/09/01 03:43:10;;;;;;;11.02;6.38;;;;;14.80;101042.00;;;;5069376;28;20020;-79
2021/09/01 03:45:37;;;;;;;12.68;6.57;;;;;14.80;101015.00;;;;5068890;28;20123;-78
2021/09/01 03:48:04;;;;;;;9.57;6.38;;;;;14.80;101009.00;;;;5069052;28;20016;-79
2021/09/01 03:50:31;;;;;;;13.00;6.60;;;;;14.80;101025.00;;;;5068699;28;20028;-79
2021/09/01 03:52:57;;;;;;;10.07;6.40;;;;;14.70;101026.00;;;;5068042;28;20028;-78
2021/09/01 03:55:24;;;;;;;10.02;6.05;;;;;14.70;101022.00;;;;5068118;28;20103;-79
2021/09/01 03:57:50;;;;;;;15.00;6.90;;;;;14.70;101007.00;;;;5068823;28;20099;-78
2021/09/01 04:00:17;;;;;;;14.07;6.18;;;;;14.70;100990.00;;;;5069041;28;20028;-78
2021/09/01 04:02:43;;;;;;;10.43;5.88;;;;;14.60;100986.00;;;;5069090;28;20032;-79
2021/09/01 04:05:10;;;;;;;12.65;5.93;;;;;14.60;100994.00;;;;5067815;28;20434;-78
2021/09/01 04:07:36;;;;;;;11.55;6.10;;;;;14.60;101014.00;;;;5068791;28;20056;-78
2021/09/01 04:16:46;;;;;;;10.75;6.38;;;;;14.50;100995.00;;;;5067879;28;20530;-79
2021/09/01 04:19:13;;;;;;;8.82;5.53;;;;;14.50;101002.00;;;;5068041;28;20025;-78
2021/09/01 04:21:39;;;;;;;10.57;5.95;;;;;14.40;100988.00;;;;5067028;28;20072;-79
2021/09/01 04:24:06;;;;;;;15.45;6.07;;;;;14.40;101003.00;;;;5068197;28;20044;-78
2021/09/01 04:27:11;;;;;;;8.43;5.50;;;;;14.40;101023.00;;;;5068365;28;20116;-79
2021/09/01 04:29:38;;;;;;;13.70;6.00;;;;;14.40;100991.00;;;;5068716;28;20090;-79
2021/09/01 04:32:05;;;;;;;10.88;5.93;;;;;14.40;101023.00;;;;5066465;28;20032;-80
2021/09/01 04:34:31;;;;;;;11.15;5.82;;;;;14.30;100987.00;;;;5068375;28;20112;-79
2021/09/01 04:36:58;;;;;;;10.77;6.30;;;;;14.20;101024.00;;;;5067499;28;20526;-79
2021/09/01 04:39:24;;;;;;;14.52;5.47;;;;;14.20;101000.00;;;;5067708;28;20028;-79
2021/09/01 04:41:51;;;;;;;9.25;5.30;;;;;14.20;100990.00;;;;5067635;28;20029;-79
2021/09/01 04:44:18;;;;;;;9.35;4.97;;;;;14.20;101023.00;;;;5067880;28;20040;-79
2021/09/01 04:46:44;;;;;;;10.82;4.75;;;;;14.10;100987.00;;;;5068013;28;20442;-79
2021/09/01 04:49:11;;;;;;;10.93;4.82;;;;;14.20;100985.00;;;;5067777;28;20028;-80
2021/09/01 04:51:37;;;;;;;10.98;4.85;;;;;14.20;100995.00;;;;5067268;28;20447;-79
2021/09/01 04:54:04;;;;;;;7.03;4.70;;;;;14.10;101001.00;;;;5067305;28;20083;-79
2021/09/01 04:56:31;;;;;;;11.02;5.22;;;;;14.10;100983.00;;;;5067922;28;20034;-79
2021/09/01 04:58:57;;;;;;;10.07;4.95;;;;;14.10;100979.00;;;;5067304;28;20021;-79
2021/09/01 05:01:24;;;;;;;12.80;5.03;;;;;14.10;100990.00;;;;5067632;28;20025;-79
2021/09/01 05:03:51;;;;;;;9.00;4.10;;;;;14.20;100998.00;;;;5067324;28;20039;-79
2021/09/01 05:06:17;;;;;;;11.70;4.30;;;;;14.10;100985.00;;;;5066443;28;20032;-79
2021/09/01 05:08:44;;;;;;;11.57;4.78;;;;;14.00;100996.00;;;;5066766;28;20051;-79
2021/09/01 05:11:10;;;;;;;10.23;4.43;;;;;14.00;100983.00;;;;5067566;28;20021;-78
2021/09/01 05:13:38;;;;;;;10.00;4.32;;;;;14.00;100980.00;;;;5067468;28;20032;-79
2021/09/01 05:16:05;;;;;;;7.15;4.13;;;;;14.00;100965.00;;;;5067044;28;20142;-79
2021/09/01 05:18:31;;;;;;;7.05;4.13;;;;;14.00;100976.00;;;;5066914;28;20039;-78
2021/09/01 05:20:59;;;;;;;9.30;4.60;;;;;14.00;100985.00;;;;5066992;28;20025;-80
2021/09/01 05:23:34;;;;;;;11.30;4.00;;;;;14.00;100976.00;;;;5066930;28;20040;-78
2021/09/01 05:26:06;;;;;;;11.52;4.70;;;;;13.90;100971.00;;;;5066799;28;20586;-80
2021/09/01 05:28:35;;;;;;;9.30;4.45;;;;;14.00;100987.00;;;;5069331;28;20036;-79
2021/09/01 05:31:04;;;;;;;12.43;4.32;;;;;13.90;100970.00;;;;5071751;28;20495;-79
2021/09/01 05:33:41;;;;;;;7.82;4.13;;;;;14.00;100976.00;;;;5070552;28;20039;-80
2021/09/01 05:36:08;;;;;;;13.27;4.68;;;;;14.00;100957.00;;;;5066556;28;20460;-80
2021/09/01 05:38:34;;;;;;;7.93;4.07;;;;;13.90;100954.00;;;;5066752;28;20039;-79
2021/09/01 05:41:02;;;;;;;9.57;3.80;;;;;13.90;100963.00;;;;5066997;28;20410;-78
2021/09/01 05:43:30;;;;;;;10.93;4.05;;;;;13.90;100957.00;;;;5066628;28;20446;-77
2021/09/01 05:45:56;;;;;;;14.15;4.38;;;;;13.80;100943.00;;;;5066555;28;20071;-77
2021/09/01 05:48:23;;;;;;;8.02;3.60;;;;;13.80;100959.00;;;;5066751;28;20123;-77
2021/09/01 05:50:56;;;;;;;7.65;3.60;;;;;13.80;100939.00;;;;5066648;28;20123;-77
2021/09/01 05:53:23;;;;;;;8.20;3.78;;;;;13.70;100965.00;;;;5066542;28;20049;-78
2021/09/01 05:55:52;;;;;;;11.43;4.45;;;;;13.70;100934.00;;;;5065815;28;20043;-77
2021/09/01 05:58:20;;;;;;;12.60;4.03;;;;;13.80;100960.00;;;;5066516;28;20107;-78
2021/09/01 06:00:57;;;;;;;9.48;3.75;;;;;13.80;100935.00;;;;5066486;28;20063;-77
2021/09/01 06:03:44;;;;;;;11.55;3.42;;;;;13.80;100957.00;;;;5066681;28;20043;-77
2021/09/01 06:06:15;;;;;;;8.75;3.40;;;;;13.80;100916.00;;;;5066318;28;20590;-78
2021/09/01 06:08:59;;;;;;;8.57;3.47;;;;;13.80;100936.00;;;;5067614;28;20857;-78
2021/09/01 06:11:27;;;;;;;6.72;2.95;;;;;13.80;100929.00;;;;5066616;28;20056;-78
2021/09/01 06:13:53;;;;;;;7.38;3.35;;;;;13.80;100928.00;;;;5066680;28;20063;-78
2021/09/01 06:16:21;;;;;;;8.73;2.90;;;;;13.80;100948.00;;;;5066989;28;20036;-78
2021/09/01 06:18:47;;;;;;;7.70;2.67;;;;;13.80;100935.00;;;;5070688;28;20040;-80
2021/09/01 06:21:14;;;;;;;7.60;2.83;;;;;13.70;100916.00;;;;5070229;28;20040;-78
2021/09/01 06:23:41;;;;;;;8.88;3.38;;;;;13.70;100934.00;;;;5070335;28;20111;-78
2021/09/01 06:26:07;;;;;;;11.43;3.58;;;;;13.70;100932.00;;;;5070492;28;20033;-81
2021/09/01 06:28:34;;;;;;;5.95;2.55;;;;;13.70;100931.00;;;;5070558;28;20032;-79
2021/09/01 06:31:00;;;;;;;8.80;2.67;;;;;13.60;100915.00;;;;5070548;28;20407;-78
2021/09/01 06:33:27;;;;;;;10.68;3.03;;;;;13.60;100924.00;;;;5070817;28;20025;-78
2021/09/01 06:35:54;;;;;;;6.97;2.30;;;;;13.60;100923.00;;;;5069930;28;20054;-79
2021/09/01 06:38:21;;;;;;;11.23;3.05;;;;;13.60;100947.00;;;;5070523;28;20063;-79
2021/09/01 06:40:47;;;;;;;11.55;3.13;;;;;13.60;100929.00;;;;5070042;28;20063;-80
2021/09/01 06:43:14;;;;;;;7.13;3.30;;;;;13.60;100891.00;;;;5070011;28;20032;-78
2021/09/01 06:45:41;;;;;;;12.55;3.15;;;;;13.50;100905.00;;;;5070712;28;20047;-80
2021/09/01 06:48:10;;;;;;;7.50;2.83;;;;;13.50;100931.00;;;;5069813;28;20036;-80
2021/09/01 06:50:37;;;;;;;10.60;2.92;;;;;13.50;100911.00;;;;5070126;28;20068;-80
2021/09/01 06:53:04;;;;;;;8.95;3.65;;;;;13.40;100917.00;;;;5070176;28;20044;-80
2021/09/01 06:55:30;;;;;;;17.77;4.93;;;;;13.40;100918.00;;;;5068831;28;20433;-80
2021/09/01 06:57:57;;;;;;;9.68;3.80;;;;;13.30;100916.00;;;;5070370;28;20032;-80
2021/09/01 07:00:23;;;;;;;16.80;5.07;;;;;13.40;100922.00;;;;5067795;28;20115;-80
2021/09/01 07:02:50;;;;;;;17.88;4.88;;;;;13.40;100912.00;;;;5069329;28;20062;-79
2021/09/01 07:05:18;;;;;;;16.20;4.55;;;;;13.40;100910.00;;;;5068268;28;20050;-79
2021/09/01 07:07:46;;;;;;;18.42;4.40;;;;;13.40;100925.00;;;;5069626;28;20033;-80
2021/09/01 07:10:14;;;;;;;18.05;5.53;;;;;13.40;100895.00;;;;5069676;28;20422;-80
2021/09/01 07:12:41;;;;;;;15.32;5.05;;;;;13.40;100919.00;;;;5069819;28;20037;-79
2021/09/01 07:15:09;;;;;;;14.40;4.95;;;;;13.30;100916.00;;;;5069667;28;20028;-80
2021/09/01 07:17:37;;;;;;;18.15;4.80;;;;;13.30;100914.00;;;;5068824;28;20399;-79
2021/09/01 07:20:05;;;;;;;18.35;5.35;;;;;13.30;100919.00;;;;5070338;28;20020;-81
2021/09/01 07:22:32;;;;;;;27.13;6.43;;;;;13.30;100898.00;;;;5069257;28;20024;-80
2021/09/01 07:24:58;;;;;;;24.77;5.57;;;;;13.30;100905.00;;;;5069473;28;20043;-79
2021/09/01 07:27:25;;;;;;;21.48;4.80;;;;;13.30;100936.00;;;;5068870;28;20043;-79
2021/09/01 07:29:52;;;;;;;20.65;5.85;;;;;13.30;100909.00;;;;5067553;28;20033;-80
2021/09/01 07:32:18;;;;;;;23.52;5.07;;;;;13.30;100928.00;;;;5068424;28;20032;-79
2021/09/01 07:34:45;;;;;;;21.77;5.90;;;;;13.30;100912.00;;;;5068490;28;20040;-80
2021/09/01 07:37:12;;;;;;;16.65;5.47;;;;;13.30;100928.00;;;;5067817;28;20062;-80
2021/09/01 07:39:39;;;;;;;31.73;7.72;;;;;13.20;100899.00;;;;5068826;28;20499;-80
2021/09/01 07:42:06;;;;;;;31.35;7.28;;;;;13.20;100901.00;;;;5069064;28;20039;-80
2021/09/01 07:44:32;;;;;;;29.33;7.25;;;;;13.30;100893.00;;;;5068360;28;20150;-80
2021/09/01 07:46:59;;;;;;;25.10;6.78;;;;;13.30;100908.00;;;;5068404;28;20504;-80
2021/09/01 07:49:25;;;;;;;33.13;7.95;;;;;13.20;100916.00;;;;5068978;28;20415;-80
2021/09/01 07:51:52;;;;;;;25.77;6.28;;;;;13.10;100891.00;;;;5069052;28;20480;-80
2021/09/01 07:54:19;;;;;;;30.77;8.02;;;;;13.20;100920.00;;;;5068384;28;20052;-80
2021/09/01 07:56:45;;;;;;;27.88;5.70;;;;;13.30;100895.00;;;;5068608;28;20500;-79
2021/09/01 07:59:12;;;;;;;27.70;6.93;;;;;13.30;100904.00;;;;5068325;28;20052;-80
2021/09/01 08:01:38;;;;;;;22.13;5.65;;;;;13.30;100924.00;;;;5068620;28;20036;-80
2021/09/01 08:04:06;;;;;;;19.58;5.93;;;;;13.30;100939.00;;;;5068208;28;20032;-80
2021/09/01 08:06:32;;;;;;;26.40;6.00;;;;;13.20;100918.00;;;;5065997;28;20032;-79
2021/09/01 08:08:59;;;;;;;15.70;5.20;;;;;13.20;100902.00;;;;5068569;28;20024;-80
2021/09/01 08:11:25;;;;;;;17.38;4.93;;;;;13.20;100911.00;;;;5068228;28;20581;-79
2021/09/01 08:13:52;;;;;;;19.15;4.40;;;;;13.20;100928.00;;;;5067319;28;20042;-79
2021/09/01 08:16:19;;;;;;;15.50;4.50;;;;;13.10;100949.00;;;;5068265;28;20032;-79
2021/09/01 08:18:45;;;;;;;20.35;5.28;;;;;13.10;100960.00;;;;5066519;28;20035;-80
2021/09/01 08:21:12;;;;;;;21.15;4.80;;;;;13.10;100959.00;;;;5067326;28;20025;-80
2021/09/01 08:23:38;;;;;;;16.55;4.65;;;;;13.10;100941.00;;;;5067482;28;20028;-80
2021/09/01 08:26:05;;;;;;;15.45;4.72;;;;;13.00;100940.00;;;;5068020;28;20908;-80
2021/09/01 08:28:31;;;;;;;11.70;3.70;;;;;13.00;100936.00;;;;5068111;28;20021;-80
2021/09/01 08:30:58;;;;;;;12.15;3.45;;;;;13.00;100955.00;;;;5066787;28;20086;-79
2021/09/01 08:33:25;;;;;;;10.35;3.25;;;;;13.10;100946.00;;;;5067353;28;20032;-80
2021/09/01 08:35:51;;;;;;;14.98;3.05;;;;;13.00;100933.00;;;;5066443;28;20064;-79
2021/09/01 08:38:18;;;;;;;12.50;3.10;;;;;13.00;100940.00;;;;5067987;28;20541;-79
2021/09/01 08:40:49;;;;;;;13.80;2.75;;;;;13.10;100966.00;;;;5067227;28;20036;-79
2021/09/01 08:43:19;;;;;;;9.40;2.78;;;;;13.20;100952.00;;;;5067932;28;20033;-79
2021/09/01 08:45:47;;;;;;;8.90;2.58;;;;;13.10;100942.00;;;;5067408;28;20149;-79
2021/09/01 08:48:17;;;;;;;7.07;2.72;;;;;13.10;100935.00;;;;5067146;28;20081;-80
2021/09/01 08:50:44;;;;;;;7.00;2.67;;;;;13.20;100954.00;;;;5067892;28;20368;-79
2021/09/01 08:53:12;;;;;;;9.82;2.83;;;;;13.20;100927.00;;;;5067685;28;20049;-80
2021/09/01 08:55:39;;;;;;;8.07;2.63;;;;;13.20;100957.00;;;;5067733;28;20025;-79
2021/09/01 08:58:05;;;;;;;7.93;2.20;;;;;13.20;100963.00;;;;5067625;28;20381;-80
2021/09/01 09:00:32;;;;;;;8.57;2.63;;;;;13.50;100949.00;;;;5066178;28;20137;-79
2021/09/01 09:03:00;;;;;;;10.52;2.35;;;;;13.50;100968.00;;;;5067138;28;20028;-79
2021/09/01 09:05:36;;;;;;;9.93;2.53;;;;;13.50;100981.00;;;;5067425;28;20029;-79
2021/09/01 09:08:08;;;;;;;8.88;2.20;;;;;13.70;100956.00;;;;5067314;28;20032;-80
2021/09/01 09:10:40;;;;;;;14.30;2.95;;;;;13.90;100960.00;;;;5067078;28;20137;-79
2021/09/01 09:13:15;;;;;;;8.52;2.05;;;;;13.90;100960.00;;;;5067424;28;20403;-79
2021/09/01 09:15:43;;;;;;;8.07;3.15;;;;;14.00;100988.00;;;;5068258;28;20047;-79
2021/09/01 09:18:27;;;;;;;7.95;2.47;;;;;13.90;100971.00;;;;5066998;28;20488;-80
2021/09/01 09:21:13;;;;;;;6.18;2.10;;;;;13.80;100970.00;;;;5067346;28;20041;-79
2021/09/01 09:23:40;;;;;;;5.97;2.15;;;;;13.60;100974.00;;;;5066750;28;20136;-79
2021/09/01 09:26:41;;;;;;;15.90;2.30;;;;;13.70;100996.00;;;;5066732;28;20459;-80
2021/09/01 09:29:19;;;;;;;7.35;2.05;;;;;13.70;100961.00;;;;5033699;28;20438;-80
2021/09/01 09:32:10;;;;;;;9.32;2.63;;;;;13.60;100995.00;;;;5066805;28;20534;-80
2021/09/01 09:34:42;;;;;;;13.80;2.30;;;;;13.60;100978.00;;;;5067051;28;20036;-77
2021/09/01 09:37:11;;;;;;;8.75;2.33;;;;;13.50;100982.00;;;;5065366;28;20031;-81
2021/09/01 09:39:47;;;;;;;11.25;2.33;;;;;13.40;100999.00;;;;5066761;28;20403;-80
2021/09/01 09:42:32;;;;;;;11.07;2.33;;;;;13.40;101012.00;;;;5065018;28;20031;-80
2021/09/01 09:44:59;;;;;;;10.55;2.05;;;;;13.40;101016.00;;;;5066935;28;20037;-80
2021/09/01 09:47:45;;;;;;;5.63;1.88;;;;;13.30;101023.00;;;;5066533;28;20119;-79
2021/09/01 09:50:12;;;;;;;10.52;2.10;;;;;13.40;100995.00;;;;5066843;28;20024;-79
2021/09/01 09:52:39;;;;;;;9.38;2.33;;;;;13.30;100990.00;;;;5064736;28;20384;-80
2021/09/01 09:55:49;;;;;;;7.55;2.17;;;;;13.30;101018.00;;;;5065271;28;20113;-79
2021/09/01 09:58:16;;;;;;;6.28;2.10;;;;;13.40;101014.00;;;;5067027;28;20085;-78
2021/09/01 10:00:42;;;;;;;5.43;2.00;;;;;13.40;100996.00;;;;5066504;28;20541;-78
2021/09/01 10:03:09;;;;;;;6.85;1.65;;;;;13.50;101015.00;;;;5067542;28;20040;-77
2021/09/01 10:05:37;;;;;;;11.15;2.00;;;;;13.60;100998.00;;;;5066543;28;20028;-79
2021/09/01 10:08:04;;;;;;;8.52;1.98;;;;;13.80;100992.00;;;;5066554;28;20502;-78
2021/09/01 10:10:30;;;;;;;8.05;1.85;;;;;13.80;101007.00;;;;5067918;28;20025;-78
2021/09/01 10:12:57;;;;;;;8.77;3.00;;;;;13.80;101003.00;;;;5070587;28;20055;-78
2021/09/01 10:15:38;;;;;;;8.25;1.98;;;;;14.00;101009.00;;;;5069167;28;20037;-78
2021/09/01 10:18:07;;;;;;;11.73;3.00;;;;;14.10;101017.00;;;;5066847;28;20123;-79
2021/09/01 10:20:41;;;;;;;6.25;1.92;;;;;14.20;100993.00;;;;5065896;28;20129;-78
2021/09/01 10:23:10;;;;;;;8.05;1.40;;;;;14.20;101000.00;;;;5065802;28;20044;-78
2021/09/01 10:25:52;;;;;;;7.07;2.00;;;;;14.20;101017.00;;;;5066580;28;20048;-78
2021/09/01 10:28:31;;;;;;;7.82;2.05;;;;;14.30;101033.00;;;;5066705;28;20506;-79
2021/09/01 10:31:10;;;;;;;7.68;1.90;;;;;14.50;101030.00;;;;5066241;28;20033;-79
2021/09/01 10:33:37;;;;;;;6.97;1.92;;;;;14.80;101028.00;;;;5066397;28;20035;-79
2021/09/01 10:36:25;;;;;;;5.60;1.67;;;;;14.90;101017.00;;;;5066162;28;20483;-82
2021/09/01 10:38:54;;;;;;;4.88;1.80;;;;;15.10;101019.00;;;;5065889;28;20033;-78
2021/09/01 10:41:32;;;;;;;9.27;1.80;;;;;15.30;101010.00;;;;5066168;28;20032;-79
2021/09/01 10:44:08;;;;;;;12.43;5.25;;;;;15.50;101027.00;;;;5066217;28;20033;-79
2021/09/01 10:46:53;;;;;;;10.32;2.65;;;;;15.90;101036.00;;;;5065051;28;20039;-80
2021/09/01 10:49:21;;;;;;;9.10;2.00;;;;;16.10;101013.00;;;;5066488;28;20025;-78
2021/09/01 10:51:52;;;;;;;38.78;4.57;;;;;16.30;101039.00;;;;5065663;28;20399;-78
2021/09/01 10:54:31;;;;;;;18.02;3.10;;;;;16.50;101031.00;;;;5064529;28;20045;-78
2021/09/01 10:56:59;;;;;;;23.13;3.55;;;;;16.70;101031.00;;;;5066625;28;20044;-78
2021/09/01 10:59:28;;;;;;;17.80;2.90;;;;;17.00;101035.00;;;;5066288;28;20039;-79
2021/09/01 11:02:26;;;;;;;14.02;2.67;;;;;17.40;101021.00;;;;5064666;28;20474;-79
2021/09/01 11:04:56;;;;;;;10.70;2.17;;;;;17.40;101030.00;;;;5068645;28;20044;-79
2021/09/01 11:07:30;;;;;;;31.20;5.07;;;;;18.10;101040.00;;;;5070049;28;20146;-76
2021/09/01 11:09:58;;;;;;;5.93;1.60;;;;;18.40;101017.00;;;;5069536;28;20041;-79
2021/09/01 11:12:27;;;;;;;11.30;2.10;;;;;18.90;101028.00;;;;5069505;28;20099;-78
2021/09/01 11:14:54;;;;;;;12.13;2.40;;;;;19.90;101000.00;;;;5069306;28;20586;-80
2021/09/01 11:17:25;;;;;;;6.22;2.55;;;;;20.50;101017.00;;;;5070163;28;20032;-78
2021/09/01 11:19:54;;;;;;;23.10;3.40;;;;;22.10;100981.00;;;;5069604;28;20050;-79
2021/09/01 11:22:26;;;;;;;2.75;1.33;;;;;23.00;100962.00;;;;5069636;28;20028;-77
2021/09/01 11:24:59;;;;;;;33.50;5.10;;;;;22.90;100956.00;;;;5069319;28;20032;-78
2021/09/01 11:27:28;;;;;;;12.52;2.67;;;;;23.30;100874.00;;;;5069496;28;20091;-77
2021/09/01 11:30:09;;;;;;;4.15;1.85;;;;;24.00;100918.00;;;;5069352;28;20040;-78
2021/09/01 11:32:37;;;;;;;13.35;2.15;;;;;23.80;100963.00;;;;5068217;28;20578;-78
2021/09/01 11:35:13;;;;;;;10.45;2.30;;;;;24.90;100870.00;;;;5069418;28;20028;-78
2021/09/01 11:37:40;;;;;;;20.80;3.03;;;;;26.80;100828.00;;;;5069167;28;20064;-78
2021/09/01 11:40:07;;;;;;;8.68;1.50;;;;;28.30;100790.00;;;;5068134;28;20491;-78
2021/09/01 11:42:34;;;;;;;9.48;2.13;;;;;28.90;100793.00;;;;5069552;28;20024;-78
2021/09/01 11:45:03;;;;;;;6.35;1.75;;;;;29.60;100864.00;;;;5068919;28;20032;-78
2021/09/01 11:47:29;;;;;;;9.57;1.95;;;;;28.70;100887.00;;;;5069141;28;20063;-78
2021/09/01 11:49:57;;;;;;;5.05;1.70;;;;;27.70;100971.00;;;;5069195;28;20024;-76
2021/09/01 11:52:32;;;;;;;11.35;1.60;;;;;26.10;100967.00;;;;5068855;28;20158;-78
2021/09/01 11:55:01;;;;;;;9.95;1.67;;;;;26.30;100949.00;;;;5068877;28;20446;-77
2021/09/01 11:57:31;;;;;;;6.82;1.70;;;;;26.10;100938.00;;;;5069018;28;20123;-79
2021/09/01 11:59:58;;;;;;;10.30;2.60;;;;;28.30;100899.00;;;;5068865;28;20024;-78
2021/09/01 12:02:30;;;;;;;5.78;2.90;;;;;28.80;100905.00;;;;5068974;28;20028;-78
2021/09/01 12:04:58;;;;;;;5.28;3.22;;;;;29.30;100912.00;;;;5069321;28;20036;-78
2021/09/01 12:07:33;;;;;;;549.45;95.35;;;;;28.80;100940.00;;;;5068641;28;20043;-78
2021/09/01 12:10:10;;;;;;;10.57;6.18;;;;;29.90;100919.00;;;;5068410;28;20081;-76
2021/09/01 12:12:41;;;;;;;507.83;82.32;;;;;29.30;100902.00;;;;5068927;28;20046;-76
2021/09/01 12:15:07;;;;;;;14.75;8.27;;;;;29.60;100869.00;;;;5068080;28;20025;-76
2021/09/01 12:17:34;;;;;;;20.38;8.85;;;;;30.90;100864.00;;;;5068027;28;20157;-75
2021/09/01 12:20:01;;;;;;;7.55;3.10;;;;;30.30;100903.00;;;;5068470;28;20478;-75
2021/09/01 12:22:41;;;;;;;10.82;5.55;;;;;31.60;100875.00;;;;5068379;28;20053;-75